createdAt,value
2023-04-02T00:00:30.623Z,89.51
2023-04-02T00:02:58.450Z,89.70
2023-04-02T00:05:30.339Z,88.79
2023-04-02T00:07:58.771Z,89.50
2023-04-02T00:10:26.785Z,89.19
2023-04-02T00:12:54.459Z,89.43
2023-04-02T00:15:22.557Z,89.50
2023-04-02T00:17:50.247Z,89.45
2023-04-02T00:20:18.021Z,89.35
2023-04-02T00:22:46.097Z,89.54
2023-04-02T00:25:13.769Z,89.30
2023-04-02T00:27:41.513Z,89.21
2023-04-02T00:30:09.167Z,89.02
2023-04-02T00:32:36.939Z,89.72
2023-04-02T00:35:04.990Z,90.06
2023-04-02T00:37:39.033Z,89.28
2023-04-02T00:40:07.510Z,89.18
2023-04-02T00:42:35.308Z,89.38
2023-04-02T00:45:03.021Z,89.63
2023-04-02T00:47:31.088Z,89.39
2023-04-02T00:49:58.820Z,89.48
2023-04-02T00:52:26.499Z,89.61
2023-04-02T00:54:54.076Z,89.47
2023-04-02T00:57:23.496Z,89.32
2023-04-02T00:59:52.009Z,89.37
2023-04-02T01:02:19.706Z,89.19
2023-04-02T01:04:47.482Z,89.45
2023-04-02T01:07:15.141Z,89.61
2023-04-02T01:09:43.103Z,89.45
2023-04-02T01:12:11.062Z,89.01
2023-04-02T01:14:38.722Z,89.58
2023-04-02T01:17:06.271Z,89.81
2023-04-02T01:19:33.990Z,89.54
2023-04-02T01:22:01.661Z,89.91
2023-04-02T01:24:29.634Z,89.32
2023-04-02T01:26:58.042Z,89.37
2023-04-02T01:29:25.838Z,89.38
2023-04-02T01:31:53.418Z,89.13
2023-04-02T01:34:20.994Z,89.57
2023-04-02T01:36:48.954Z,89.39
2023-04-02T01:39:16.612Z,88.97
2023-04-02T01:41:44.201Z,89.86
2023-04-02T01:44:12.258Z,89.23
2023-04-02T01:46:39.887Z,89.23
2023-04-02T01:49:08.394Z,88.89
2023-04-02T01:51:36.195Z,89.13
2023-04-02T01:54:03.824Z,89.40
2023-04-02T01:56:31.689Z,89.31
2023-04-02T01:58:59.322Z,89.16
2023-04-02T02:01:27.286Z,89.48
2023-04-02T02:03:54.903Z,89.41
2023-04-02T02:06:22.897Z,89.33
2023-04-02T02:08:50.518Z,89.14
2023-04-02T02:11:18.078Z,89.17
2023-04-02T02:13:47.041Z,89.38
2023-04-02T02:16:14.976Z,89.35
2023-04-02T02:18:42.624Z,89.00
2023-04-02T02:21:10.275Z,89.46
2023-04-02T02:23:37.870Z,89.04
2023-04-02T02:26:05.468Z,89.26
2023-04-02T02:28:34.523Z,89.38
2023-04-02T02:31:02.775Z,89.19
2023-04-02T02:33:30.420Z,89.14
2023-04-02T02:35:58.116Z,88.88
2023-04-02T02:38:26.145Z,88.89
2023-04-02T02:40:53.973Z,89.12
2023-04-02T02:43:21.642Z,88.86
2023-04-02T02:45:49.185Z,89.25
2023-04-02T02:48:16.758Z,89.06
2023-04-02T02:50:44.820Z,88.83
2023-04-02T02:53:12.467Z,89.25
2023-04-02T02:55:40.031Z,88.88
2023-04-02T02:58:09.074Z,88.78
2023-04-02T03:00:36.694Z,88.86
2023-04-02T03:03:05.052Z,88.59
2023-04-02T03:05:33.197Z,89.12
2023-04-02T03:08:01.454Z,88.74
2023-04-02T03:10:29.084Z,88.50
2023-04-02T03:12:57.260Z,88.74
2023-04-02T03:15:25.209Z,88.81
2023-04-02T03:17:53.007Z,88.90
2023-04-02T03:20:20.736Z,88.82
2023-04-02T03:22:48.425Z,88.96
2023-04-02T03:25:15.999Z,88.59
2023-04-02T03:27:43.866Z,88.90
2023-04-02T03:30:11.482Z,89.04
2023-04-02T03:32:39.069Z,88.64
2023-04-02T03:35:07.204Z,88.73
2023-04-02T03:37:34.793Z,88.30
2023-04-02T03:40:02.784Z,88.64
2023-04-02T03:42:30.511Z,88.86
2023-04-02T03:44:58.070Z,88.59
2023-04-02T03:47:25.678Z,89.09
2023-04-02T03:49:53.356Z,88.84
2023-04-02T03:52:21.282Z,88.62
2023-04-02T03:54:54.089Z,88.66
2023-04-02T03:57:22.593Z,89.01
2023-04-02T03:59:50.298Z,88.78
2023-04-02T04:02:17.955Z,88.57
2023-04-02T04:04:46.003Z,88.40
2023-04-02T04:07:13.694Z,88.88
2023-04-02T04:09:41.256Z,88.53
2023-04-02T04:12:08.869Z,88.27
2023-04-02T04:14:36.462Z,88.56
2023-04-02T04:17:04.954Z,88.65
2023-04-02T04:19:32.751Z,88.49
2023-04-02T04:22:00.356Z,88.86
2023-04-02T04:24:27.957Z,88.63
2023-04-02T04:26:55.594Z,88.54
2023-04-02T04:29:23.583Z,88.96
2023-04-02T04:31:55.339Z,88.32
2023-04-02T04:34:23.586Z,88.58
2023-04-02T04:36:55.061Z,88.56
2023-04-02T04:39:24.533Z,88.69
2023-04-02T04:41:52.170Z,88.38
2023-04-02T04:44:19.754Z,88.79
2023-04-02T04:46:47.398Z,88.58
2023-04-02T04:49:15.043Z,88.75
2023-04-02T04:51:42.999Z,89.20
2023-04-02T04:54:10.560Z,88.44
2023-04-02T04:56:38.231Z,88.91
2023-04-02T04:59:05.964Z,88.74
2023-04-02T05:01:34.033Z,88.80
2023-04-02T05:04:02.093Z,88.48
2023-04-02T05:06:29.810Z,88.52
2023-04-02T05:08:57.425Z,88.46
2023-04-02T05:11:25.608Z,88.75
2023-04-02T05:13:53.208Z,88.67
2023-04-02T05:16:21.188Z,88.39
2023-04-02T05:18:49.131Z,88.61
2023-04-02T05:21:16.823Z,88.33
2023-04-02T05:23:44.786Z,88.36
2023-04-02T05:26:12.400Z,88.73
2023-04-02T05:28:40.402Z,88.11
2023-04-02T05:31:08.310Z,88.66
2023-04-02T05:33:36.095Z,88.53
2023-04-02T05:36:03.819Z,88.54
2023-04-02T05:38:31.549Z,88.24
2023-04-02T05:40:59.661Z,88.26
2023-04-02T05:43:27.440Z,88.19
2023-04-02T05:45:55.484Z,88.44
2023-04-02T05:48:23.094Z,88.53
2023-04-02T05:50:51.287Z,87.84
2023-04-02T05:53:19.222Z,88.19
2023-04-02T05:55:47.047Z,88.22
2023-04-02T05:58:34.715Z,88.09
2023-04-02T06:01:02.679Z,88.09
2023-04-02T06:03:30.726Z,87.56
2023-04-02T06:06:00.017Z,88.03
2023-04-02T06:08:27.641Z,87.83
2023-04-02T06:10:55.505Z,87.82
2023-04-02T06:13:23.092Z,87.53
2023-04-02T06:15:50.731Z,87.86
2023-04-02T06:18:18.490Z,87.63
2023-04-02T06:20:46.254Z,87.65
2023-04-02T06:23:13.915Z,87.29
2023-04-02T06:25:41.570Z,87.52
2023-04-02T06:28:09.836Z,88.06
2023-04-02T06:30:37.525Z,87.92
2023-04-02T06:33:05.234Z,87.26
2023-04-02T06:35:32.900Z,87.76
2023-04-02T06:38:00.582Z,87.68
2023-04-02T06:40:28.612Z,87.18
2023-04-02T06:42:59.814Z,87.32
2023-04-02T06:45:27.526Z,87.36
2023-04-02T06:47:55.150Z,87.31
2023-04-02T06:50:23.396Z,87.24
2023-04-02T06:52:51.361Z,87.08
2023-04-02T06:55:19.200Z,87.14
2023-04-02T06:57:47.047Z,87.08
2023-04-02T07:00:15.003Z,87.28
2023-04-02T07:02:42.770Z,86.81
2023-04-02T07:05:11.444Z,86.96
2023-04-02T07:07:39.484Z,86.97
2023-04-02T07:10:09.404Z,86.74
2023-04-02T07:12:37.062Z,86.71
2023-04-02T07:15:04.866Z,86.52
2023-04-02T07:17:32.867Z,86.94
2023-04-02T07:20:00.762Z,86.66
2023-04-02T07:22:28.444Z,86.69
2023-04-02T07:24:56.230Z,86.39
2023-04-02T07:27:23.860Z,86.56
2023-04-02T07:29:51.980Z,86.40
2023-04-02T07:32:22.282Z,86.40
2023-04-02T07:34:50.447Z,86.54
2023-04-02T07:37:18.173Z,86.29
2023-04-02T07:39:45.989Z,85.96
2023-04-02T07:42:13.644Z,85.87
2023-04-02T07:44:41.624Z,86.04
2023-04-02T07:47:10.781Z,86.07
2023-04-02T07:49:38.438Z,85.35
2023-04-02T07:52:06.213Z,85.55
2023-04-02T07:54:34.748Z,85.63
2023-04-02T07:57:02.505Z,85.47
2023-04-02T07:59:30.229Z,85.62
2023-04-02T08:01:58.057Z,85.38
2023-04-02T08:04:25.857Z,85.33
2023-04-02T08:06:54.722Z,85.29
2023-04-02T08:09:22.746Z,85.44
2023-04-02T08:11:50.901Z,85.32
2023-04-02T08:14:18.687Z,85.13
2023-04-02T08:16:47.120Z,85.00
2023-04-02T08:19:15.205Z,84.79
2023-04-02T08:21:43.038Z,85.28
2023-04-02T08:24:10.730Z,84.93
2023-04-02T08:26:38.425Z,84.37
2023-04-02T08:29:06.133Z,84.49
2023-04-02T08:31:34.171Z,84.50
2023-04-02T08:34:02.232Z,84.92
2023-04-02T08:36:30.055Z,84.66
2023-04-02T08:38:58.234Z,84.32
2023-04-02T08:41:28.125Z,84.48
2023-04-02T08:43:56.403Z,84.11
2023-04-02T08:46:24.185Z,84.19
2023-04-02T08:48:51.919Z,84.06
2023-04-02T08:51:19.674Z,84.02
2023-04-02T08:53:47.348Z,83.73
2023-04-02T08:56:18.195Z,83.63
2023-04-02T08:58:45.887Z,83.48
2023-04-02T09:01:14.190Z,83.54
2023-04-02T09:03:42.845Z,83.13
2023-04-02T09:06:14.287Z,83.00
2023-04-02T09:08:43.492Z,83.08
2023-04-02T09:11:11.667Z,83.04
2023-04-02T09:13:39.579Z,82.41
2023-04-02T09:16:07.363Z,82.32
2023-04-02T09:18:35.200Z,82.30
2023-04-02T09:21:04.005Z,82.25
2023-04-02T09:23:33.637Z,82.12
2023-04-02T09:26:04.097Z,81.93
2023-04-02T09:28:32.632Z,81.76
2023-04-02T09:31:00.300Z,81.81
2023-04-02T09:33:28.365Z,81.35
2023-04-02T09:35:56.319Z,81.54
2023-04-02T09:38:24.200Z,81.36
2023-04-02T09:40:52.057Z,80.89
2023-04-02T09:43:19.778Z,81.12
2023-04-02T09:45:48.206Z,80.82
2023-04-02T09:48:15.898Z,80.22
2023-04-02T09:50:43.861Z,80.74
2023-04-02T09:53:11.645Z,80.27
2023-04-02T09:55:39.449Z,80.20
2023-04-02T09:58:07.744Z,80.35
2023-04-02T10:00:35.898Z,80.19
2023-04-02T10:03:04.466Z,80.11
2023-04-02T10:05:40.432Z,80.18
2023-04-02T10:08:09.544Z,79.72
2023-04-02T10:10:38.128Z,79.89
2023-04-02T10:13:06.084Z,79.90
2023-04-02T10:15:34.188Z,79.81
2023-04-02T10:18:02.453Z,79.50
2023-04-02T10:20:34.001Z,79.61
2023-04-02T10:23:06.385Z,78.92
2023-04-02T10:25:34.422Z,78.96
2023-04-02T10:28:02.886Z,78.61
2023-04-02T10:30:31.203Z,78.86
2023-04-02T10:32:59.177Z,78.23
2023-04-02T10:35:26.975Z,78.57
2023-04-02T10:37:54.947Z,78.29
2023-04-02T10:40:22.851Z,78.17
2023-04-02T10:42:51.001Z,77.74
2023-04-02T10:45:18.990Z,77.80
2023-04-02T10:47:47.186Z,78.08
2023-04-02T10:50:15.141Z,77.18
2023-04-02T10:52:43.042Z,77.41
2023-04-02T10:55:11.169Z,78.14
2023-04-02T10:57:39.276Z,77.46
2023-04-02T11:00:09.783Z,77.73
2023-04-02T11:02:37.802Z,77.68
2023-04-02T11:05:05.979Z,77.54
2023-04-02T11:07:34.763Z,77.42
2023-04-02T11:10:03.303Z,77.03
2023-04-02T11:12:31.156Z,77.02
2023-04-02T11:14:59.419Z,76.70
2023-04-02T11:17:27.143Z,76.65
2023-04-02T11:19:56.745Z,76.72
2023-04-02T11:22:24.624Z,76.93
2023-04-02T11:24:52.509Z,76.66
2023-04-02T11:27:20.305Z,76.51
2023-04-02T11:29:48.201Z,76.64
2023-04-02T11:32:16.830Z,76.26
2023-04-02T11:34:44.704Z,76.37
2023-04-02T11:37:12.791Z,76.20
2023-04-02T11:39:40.618Z,76.17
2023-04-02T11:42:08.454Z,76.34
2023-04-02T11:44:36.805Z,76.44
2023-04-02T11:47:04.624Z,76.29
2023-04-02T11:49:32.976Z,76.41
2023-04-02T11:52:11.394Z,75.85
2023-04-02T11:54:40.652Z,75.96
2023-04-02T11:57:08.481Z,76.29
2023-04-02T11:59:36.586Z,76.03
2023-04-02T12:02:04.444Z,75.82
2023-04-02T12:04:32.323Z,76.10
2023-04-02T12:07:00.501Z,76.15
2023-04-02T12:09:28.368Z,75.69
2023-04-02T12:11:56.308Z,75.46
2023-04-02T12:14:24.624Z,75.29
2023-04-02T12:16:53.607Z,75.19
2023-04-02T12:19:22.341Z,75.25
2023-04-02T12:21:50.149Z,75.40
2023-04-02T12:24:18.383Z,74.97
2023-04-02T12:26:46.908Z,74.37
2023-04-02T12:29:16.764Z,74.88
2023-04-02T12:31:45.017Z,74.56
2023-04-02T12:34:12.835Z,74.42
2023-04-02T12:36:43.187Z,74.12
2023-04-02T12:39:11.222Z,74.19
2023-04-02T12:41:39.114Z,73.99
2023-04-02T12:44:06.884Z,73.86
2023-04-02T12:46:34.859Z,73.95
2023-04-02T12:49:02.824Z,73.65
2023-04-02T12:51:30.825Z,73.83
2023-04-02T12:53:58.681Z,73.28
2023-04-02T12:56:27.320Z,73.09
2023-04-02T12:58:55.833Z,73.19
2023-04-02T13:01:24.870Z,72.78
2023-04-02T13:03:53.098Z,73.05
2023-04-02T13:06:21.022Z,73.10
2023-04-02T13:08:49.197Z,73.04
2023-04-02T13:11:17.291Z,72.49
2023-04-02T13:13:45.114Z,72.16
2023-04-02T13:16:13.019Z,71.87
2023-04-02T13:18:40.861Z,71.62
2023-04-02T13:21:08.706Z,71.96
2023-04-02T13:23:36.722Z,72.08
2023-04-02T13:26:04.916Z,71.37
2023-04-02T13:28:32.767Z,71.78
2023-04-02T13:31:00.662Z,71.19
2023-04-02T13:33:29.240Z,71.02
2023-04-02T13:35:57.124Z,70.62
2023-04-02T13:38:25.226Z,70.63
2023-04-02T13:40:53.107Z,70.40
2023-04-02T13:43:21.332Z,70.17
2023-04-02T13:45:49.744Z,69.96
2023-04-02T13:48:18.676Z,69.29
2023-04-02T13:50:47.267Z,69.00
2023-04-02T13:53:15.126Z,68.92
2023-04-02T13:55:43.084Z,68.81
2023-04-02T13:58:11.985Z,68.22
2023-04-02T14:00:39.858Z,67.52
2023-04-02T14:03:07.868Z,67.33
2023-04-02T14:05:37.046Z,67.53
2023-04-02T14:08:05.081Z,67.21
2023-04-02T14:10:33.201Z,67.52
2023-04-02T14:13:01.022Z,67.78
2023-04-02T14:15:29.161Z,67.57
2023-04-02T14:17:57.180Z,67.64
2023-04-02T14:20:25.021Z,67.78
2023-04-02T14:22:53.483Z,67.60
2023-04-02T14:25:21.318Z,67.86
2023-04-02T14:27:49.232Z,67.38
2023-04-02T14:30:17.096Z,68.01
2023-04-02T14:32:44.996Z,67.46
2023-04-02T14:35:12.952Z,67.12
2023-04-02T14:37:40.721Z,67.64
2023-04-02T14:40:09.267Z,67.26
2023-04-02T14:42:37.199Z,67.54
2023-04-02T14:45:05.153Z,67.50
2023-04-02T14:47:33.866Z,67.48
2023-04-02T14:50:01.782Z,67.56
2023-04-02T14:52:29.653Z,66.97
2023-04-02T14:54:57.973Z,67.42
2023-04-02T14:57:26.710Z,66.91
2023-04-02T14:59:54.952Z,66.23
2023-04-02T15:02:23.086Z,64.71
2023-04-02T15:04:51.092Z,63.82
2023-04-02T15:07:19.201Z,62.89
2023-04-02T15:09:47.725Z,63.54
2023-04-02T15:12:15.909Z,63.46
2023-04-02T15:14:43.942Z,63.28
2023-04-02T15:17:12.020Z,63.54
2023-04-02T15:19:39.958Z,63.21
2023-04-02T15:22:09.472Z,63.38
2023-04-02T15:24:38.153Z,63.43
2023-04-02T15:27:14.727Z,63.80
2023-04-02T15:29:52.067Z,63.03
2023-04-02T15:32:20.018Z,61.23
2023-04-02T15:34:50.444Z,60.24
2023-04-02T15:37:18.372Z,60.81
2023-04-02T15:39:46.386Z,61.48
2023-04-02T15:42:15.173Z,62.76
2023-04-02T15:44:43.147Z,63.19
2023-04-02T15:47:11.574Z,64.33
2023-04-02T15:49:39.455Z,64.89
2023-04-02T15:52:07.433Z,65.20
2023-04-02T15:54:35.214Z,65.56
2023-04-02T15:57:03.121Z,65.96
2023-04-02T15:59:31.338Z,66.29
2023-04-02T16:01:59.258Z,66.32
2023-04-02T16:04:27.136Z,66.89
2023-04-02T16:06:55.524Z,66.19
2023-04-02T16:09:23.427Z,66.69
2023-04-02T16:11:51.869Z,67.11
2023-04-02T16:14:20.210Z,66.71
2023-04-02T16:16:48.148Z,66.70
2023-04-02T16:19:17.176Z,66.84
2023-04-02T16:21:45.297Z,67.12
2023-04-02T16:24:13.639Z,67.58
2023-04-02T16:26:41.566Z,66.97
2023-04-02T16:29:09.689Z,67.51
2023-04-02T16:31:37.637Z,67.36
2023-04-02T16:34:05.521Z,67.08
2023-04-02T16:36:34.066Z,67.19
2023-04-02T16:39:02.016Z,67.02
2023-04-02T16:41:30.028Z,67.40
2023-04-02T16:43:57.994Z,67.22
2023-04-02T16:46:38.327Z,67.51
2023-04-02T16:49:08.478Z,67.71
2023-04-02T16:51:36.274Z,66.79
2023-04-02T16:54:04.365Z,66.97
2023-04-02T16:56:32.231Z,67.63
2023-04-02T16:59:00.113Z,67.17
2023-04-02T17:01:28.696Z,66.68
2023-04-02T17:03:57.067Z,67.32
2023-04-02T17:06:25.076Z,67.15
2023-04-02T17:08:52.919Z,66.76
2023-04-02T17:11:21.656Z,66.79
2023-04-02T17:13:49.781Z,67.17
2023-04-02T17:16:18.625Z,67.29
2023-04-02T17:18:46.659Z,67.38
2023-04-02T17:21:14.399Z,67.46
2023-04-02T17:23:53.210Z,67.65
2023-04-02T17:26:25.049Z,67.84
2023-04-02T17:28:53.333Z,67.83
2023-04-02T17:31:21.406Z,68.01
2023-04-02T17:33:49.384Z,67.91
2023-04-02T17:36:17.267Z,68.66
2023-04-02T17:38:45.856Z,69.03
2023-04-02T17:41:13.736Z,68.82
2023-04-02T17:43:43.276Z,69.26
2023-04-02T17:46:11.178Z,69.03
2023-04-02T17:48:39.168Z,69.27
2023-04-02T17:51:07.588Z,69.46
2023-04-02T17:53:35.457Z,69.68
2023-04-02T17:56:03.412Z,69.83
2023-04-02T17:58:31.509Z,69.78
2023-04-02T18:00:59.898Z,70.18
2023-04-02T18:03:30.051Z,70.28
2023-04-02T18:05:58.749Z,70.26
2023-04-02T18:08:26.560Z,70.62
2023-04-02T18:10:54.469Z,70.71
2023-04-02T18:13:22.329Z,70.81
2023-04-02T18:15:50.492Z,70.51
2023-04-02T18:18:18.644Z,71.30
2023-04-02T18:20:46.577Z,70.65
2023-04-02T18:23:14.561Z,71.33
2023-04-02T18:25:43.205Z,71.03
2023-04-02T18:28:11.606Z,70.89
2023-04-02T18:30:40.014Z,70.89
2023-04-02T18:33:08.432Z,71.11
2023-04-02T18:35:36.305Z,71.11
2023-04-02T18:38:04.176Z,71.33
2023-04-02T18:40:32.811Z,71.27
2023-04-02T18:43:01.027Z,71.28
2023-04-02T18:45:29.279Z,71.65
2023-04-02T18:47:57.250Z,71.30
2023-04-02T18:50:25.305Z,72.04
2023-04-02T18:52:53.706Z,71.92
2023-04-02T18:55:22.127Z,72.01
2023-04-02T18:57:49.923Z,72.55
2023-04-02T19:00:17.963Z,72.63
2023-04-02T19:02:46.035Z,72.15
2023-04-02T19:05:14.156Z,72.87
2023-04-02T19:07:42.998Z,72.81
2023-04-02T19:10:11.026Z,73.57
2023-04-02T19:12:39.044Z,73.70
2023-04-02T19:15:07.280Z,73.67
2023-04-02T19:17:35.881Z,73.86
2023-04-02T19:20:04.121Z,74.31
2023-04-02T19:22:33.740Z,73.46
2023-04-02T19:25:01.617Z,74.22
2023-04-02T19:27:29.618Z,73.78
2023-04-02T19:29:57.920Z,73.82
2023-04-02T19:32:25.770Z,74.23
2023-04-02T19:34:53.618Z,73.93
2023-04-02T19:37:22.265Z,74.66
2023-04-02T19:39:50.419Z,74.24
2023-04-02T19:42:18.805Z,74.81
2023-04-02T19:44:47.061Z,74.59
2023-04-02T19:47:15.101Z,74.43
2023-04-02T19:49:42.964Z,75.08
2023-04-02T19:52:10.869Z,75.06
2023-04-02T19:54:39.514Z,74.67
2023-04-02T19:57:07.674Z,74.95
2023-04-02T19:59:35.864Z,75.37
2023-04-02T20:02:06.921Z,75.74
2023-04-02T20:04:34.854Z,75.35
2023-04-02T20:07:03.375Z,75.68
2023-04-02T20:09:31.259Z,75.54
2023-04-02T20:11:59.311Z,75.50
2023-04-02T20:14:27.633Z,76.00
2023-04-02T20:16:55.573Z,76.07
2023-04-02T20:19:24.017Z,76.21
2023-04-02T20:21:52.168Z,76.32
2023-04-02T20:24:20.078Z,76.59
2023-04-02T20:26:47.856Z,76.45
2023-04-02T20:29:15.883Z,76.30
2023-04-02T20:31:43.803Z,76.18
2023-04-02T20:34:12.375Z,76.43
2023-04-02T20:36:41.379Z,77.06
2023-04-02T20:39:11.027Z,76.22
2023-04-02T20:41:38.975Z,76.68
2023-04-02T20:44:06.704Z,77.00
2023-04-02T20:46:35.017Z,76.57
2023-04-02T20:49:03.378Z,77.47
2023-04-02T20:51:31.172Z,76.72
2023-04-02T20:53:59.057Z,76.86
2023-04-02T20:56:27.722Z,76.64
2023-04-02T20:58:56.962Z,76.55
2023-04-02T21:01:24.949Z,77.28
2023-04-02T21:03:52.952Z,76.83
2023-04-02T21:06:21.314Z,77.16
2023-04-02T21:08:49.296Z,77.08
2023-04-02T21:11:17.073Z,77.64
2023-04-02T21:13:45.041Z,77.55
2023-04-02T21:16:12.936Z,77.92
2023-04-02T21:18:40.898Z,77.29
2023-04-02T21:21:09.067Z,77.22
2023-04-02T21:23:36.980Z,77.13
2023-04-02T21:26:06.255Z,77.56
2023-04-02T21:28:34.159Z,77.50
2023-04-02T21:31:02.053Z,78.06
2023-04-02T21:33:29.981Z,77.76
2023-04-02T21:35:58.164Z,78.52
2023-04-02T21:38:26.198Z,78.27
2023-04-02T21:40:53.979Z,78.00
2023-04-02T21:43:22.365Z,78.18
2023-04-02T21:45:50.718Z,77.96
2023-04-02T21:48:18.737Z,78.31
2023-04-02T21:50:46.923Z,78.76
2023-04-02T21:53:14.851Z,78.11
2023-04-02T21:55:42.651Z,78.63
2023-04-02T21:58:10.722Z,78.18
2023-04-02T22:00:39.290Z,78.52
2023-04-02T22:03:07.887Z,78.32
2023-04-02T22:05:37.390Z,78.79
2023-04-02T22:08:05.479Z,78.32
2023-04-02T22:10:33.715Z,78.29
2023-04-02T22:13:01.848Z,78.97
2023-04-02T22:15:29.628Z,78.83
2023-04-02T22:17:57.333Z,78.80
2023-04-02T22:20:25.129Z,78.63
2023-04-02T22:22:53.269Z,78.46
2023-04-02T22:25:20.999Z,78.82
2023-04-02T22:27:52.054Z,78.83
2023-04-02T22:30:19.799Z,78.78
2023-04-02T22:32:47.441Z,79.29
2023-04-02T22:35:15.477Z,78.83
2023-04-02T22:37:43.211Z,78.78
2023-04-02T22:40:10.947Z,79.13
2023-04-02T22:42:38.609Z,79.13
2023-04-02T22:45:08.065Z,78.95
2023-04-02T22:47:36.632Z,78.21
2023-04-02T22:50:04.715Z,79.21
2023-04-02T22:52:32.401Z,79.12
2023-04-02T22:55:00.151Z,78.93
2023-04-02T22:57:27.956Z,79.09
2023-04-02T22:59:56.007Z,78.88
2023-04-02T23:02:23.885Z,79.21
2023-04-02T23:04:51.519Z,78.92
2023-04-02T23:07:19.216Z,79.35
2023-04-02T23:09:47.501Z,79.25
2023-04-02T23:12:15.589Z,79.40
2023-04-02T23:14:43.477Z,79.73
2023-04-02T23:17:11.176Z,78.93
2023-04-02T23:19:38.881Z,78.91
2023-04-02T23:22:06.538Z,79.34
2023-04-02T23:24:34.201Z,79.62
2023-04-02T23:27:01.875Z,79.21
2023-04-02T23:29:29.530Z,79.69
2023-04-02T23:31:57.486Z,79.83
2023-04-02T23:34:25.094Z,79.59
2023-04-02T23:36:53.094Z,79.53
2023-04-02T23:39:22.357Z,79.44
2023-04-02T23:41:49.990Z,79.27
2023-04-02T23:44:17.626Z,79.72
2023-04-02T23:46:45.251Z,79.60
2023-04-02T23:49:13.461Z,79.36
2023-04-02T23:51:41.616Z,79.72
2023-04-02T23:54:09.598Z,79.35
2023-04-02T23:56:37.139Z,79.59
2023-04-02T23:59:04.801Z,79.82
